Time;durP1;ratioP1;P1;durP2;ratioP2;P2;SDS_P1;SDS_P2;PMS_P1;PMS_P2;Temp;Humidity;BMP_temperature;BMP_pressure;BME280_temperature;BME280_humidity;BME280_pressure;Samples;Min_cycle;Max_cycle;Signal;HPM_P1;HPM_P2
2022/03/30 00:00:53;;;;;;;93.00;46.28;;;;;;;22.78;100.00;97842.72;4925047;29;20063;-67
2022/03/30 00:03:28;;;;;;;92.55;46.88;;;;;;;22.76;100.00;97852.53;4897885;29;20128;-67
2022/03/30 00:06:24;;;;;;;98.78;47.67;;;;;;;22.67;100.00;97848.13;4927378;29;20055;-66
2022/03/30 00:08:59;;;;;;;97.75;48.78;;;;;;;22.70;100.00;97847.84;4912034;29;20103;-66
2022/03/30 00:11:53;;;;;;;107.18;49.88;;;;;;;22.65;100.00;97850.06;4923210;29;20066;-67
2022/03/30 00:14:36;;;;;;;109.97;50.20;;;;;;;22.56;100.00;97851.75;4915161;29;20499;-67
2022/03/30 00:17:25;;;;;;;115.68;52.67;;;;;;;22.46;100.00;97854.38;4922355;29;20060;-66
2022/03/30 00:20:07;;;;;;;122.22;59.35;;;;;;;22.37;100.00;97849.97;4911879;29;20051;-66
2022/03/30 00:23:02;;;;;;;121.95;59.60;;;;;;;22.36;100.00;97850.94;4919508;29;20079;-66
2022/03/30 00:25:39;;;;;;;115.15;57.05;;;;;;;22.33;100.00;97851.22;4922340;28;20058;-66
2022/03/30 00:28:34;;;;;;;110.97;54.50;;;;;;;22.38;100.00;97850.81;4924712;29;20425;-66
2022/03/30 00:31:12;;;;;;;104.03;52.05;;;;;;;22.50;100.00;97861.03;4918485;29;20525;-66
2022/03/30 00:34:07;;;;;;;108.70;53.15;;;;;;;22.51;100.00;97867.91;4910994;29;20489;-67
2022/03/30 00:36:42;;;;;;;119.13;53.00;;;;;;;22.50;100.00;97866.28;4922010;29;20052;-67
2022/03/30 00:39:30;;;;;;;108.57;52.42;;;;;;;22.59;100.00;97877.69;4920254;29;20059;-67
2022/03/30 00:42:26;;;;;;;118.20;52.38;;;;;;;22.48;100.00;97873.44;4924412;29;20052;-67
2022/03/30 00:45:25;;;;;;;109.47;53.80;;;;;;;22.44;100.00;97877.31;4924587;29;20126;-66
2022/03/30 00:48:02;;;;;;;119.57;54.00;;;;;;;22.34;100.00;97876.50;4923416;29;20055;-67
2022/03/30 00:50:57;;;;;;;;;;;;;;;22.23;100.00;97881.91;4927487;29;20084;-67
2022/03/30 00:53:32;;;;;;;107.68;51.05;;;;;;;22.18;100.00;97881.50;4922617;29;19931;-67
2022/03/30 00:56:27;;;;;;;114.88;53.63;;;;;;;22.11;100.00;97885.59;4920286;29;20071;-67
2022/03/30 00:59:07;;;;;;;106.82;50.22;;;;;;;22.14;100.00;97890.59;4928945;29;20058;-65
2022/03/30 01:01:56;;;;;;;115.15;55.95;;;;;;;22.10;100.00;97889.22;4922385;29;20060;-66
2022/03/30 01:04:38;;;;;;;124.50;55.97;;;;;;;22.13;100.00;97886.31;4913624;29;20534;-66
2022/03/30 01:07:33;;;;;;;125.38;56.30;;;;;;;22.17;100.00;97895.56;4916398;29;20055;-66
2022/03/30 01:10:11;;;;;;;131.65;58.22;;;;;;;22.21;100.00;97906.59;4928484;29;20111;-67
2022/03/30 01:13:09;;;;;;;128.32;56.13;;;;;;;22.17;100.00;97907.88;4929914;29;20671;-66
2022/03/30 01:15:46;;;;;;;127.53;58.33;;;;;;;22.18;100.00;97912.97;4908967;29;20110;-65
2022/03/30 01:18:46;;;;;;;;;;;;;;;22.20;100.00;97918.06;4924631;29;20050;-66
2022/03/30 01:21:21;;;;;;;123.95;55.55;;;;;;;22.18;100.00;97907.72;4926962;29;19931;-66
2022/03/30 01:24:18;;;;;;;122.15;56.85;;;;;;;22.24;100.00;97917.66;4922949;29;20256;-67
2022/03/30 01:27:00;;;;;;;113.55;56.00;;;;;;;22.31;100.00;97924.03;4932276;28;20059;-66
2022/03/30 01:32:50;;;;;;;123.65;56.78;;;;;;;22.49;100.00;97938.13;4925282;29;20090;-66
2022/03/30 01:35:39;;;;;;;121.93;59.38;;;;;;;22.67;100.00;97940.03;4927017;29;20043;-66
2022/03/30 01:38:21;;;;;;;126.93;57.53;;;;;;;22.73;100.00;97940.31;4923342;29;20750;-66
2022/03/30 01:41:10;;;;;;;128.63;57.85;;;;;;;22.80;100.00;97946.69;4929568;29;20178;-66
2022/03/30 01:43:52;;;;;;;135.70;59.00;;;;;;;22.80;100.00;97946.69;4927457;29;20039;-66
2022/03/30 01:46:45;;;;;;;137.85;58.33;;;;;;;22.90;100.00;97951.94;4927149;29;20047;-65
2022/03/30 01:49:27;;;;;;;128.75;57.97;;;;;;;23.01;100.00;97957.00;4921996;29;20063;-66
2022/03/30 01:52:16;;;;;;;129.38;57.97;;;;;;;23.22;100.00;97957.66;4925229;29;20447;-66
2022/03/30 01:54:58;;;;;;;127.15;57.03;;;;;;;23.46;100.00;97972.13;4920457;29;20052;-65
2022/03/30 01:57:46;;;;;;;118.40;58.92;;;;;;;23.83;100.00;97965.03;4921710;29;20084;-66
2022/03/30 02:00:29;;;;;;;129.27;59.30;;;;;;;24.11;100.00;97972.91;4921585;29;20051;-66
2022/03/30 02:03:19;;;;;;;131.63;55.35;;;;;;;24.35;100.00;97978.44;4923622;29;20078;-67
2022/03/30 02:06:01;;;;;;;127.77;56.07;;;;;;;24.67;98.04;97978.75;4921945;29;20135;-66
2022/03/30 02:08:50;;;;;;;128.52;55.30;;;;;;;24.84;96.80;97981.53;4924012;29;20237;-66
2022/03/30 02:11:33;;;;;;;144.00;56.90;;;;;;;25.08;92.22;97977.28;4922784;29;20056;-67
2022/03/30 02:14:23;;;;;;;131.98;56.42;;;;;;;25.15;93.92;97980.13;4923384;29;20107;-67
2022/03/30 02:17:19;;;;;;;117.03;52.85;;;;;;;25.33;94.27;97985.38;4924086;29;20947;-67
2022/03/30 02:19:57;;;;;;;129.43;50.70;;;;;;;25.33;90.05;97991.47;4925961;29;20491;-67
2022/03/30 02:23:00;;;;;;;112.35;52.05;;;;;;;25.43;90.27;97991.38;4926155;29;20776;-66
2022/03/30 02:25:51;;;;;;;115.78;53.22;;;;;;;25.72;90.76;97985.75;4924283;28;20120;-67
2022/03/30 02:28:40;;;;;;;133.45;56.10;;;;;;;25.69;80.40;98001.94;4921152;29;20059;-66
2022/03/30 02:31:27;;;;;;;133.20;57.88;;;;;;;25.81;78.74;98011.22;4927246;29;20051;-66
2022/03/30 02:34:17;;;;;;;135.75;58.63;;;;;;;25.97;81.03;98006.00;4923754;29;20051;-66
2022/03/30 02:37:00;;;;;;;155.05;59.55;;;;;;;25.77;76.75;98008.06;4925800;29;20055;-66
2022/03/30 02:39:49;;;;;;;125.47;48.63;;;;;;;25.84;71.49;98013.56;4923345;29;20052;-66
2022/03/30 02:42:32;;;;;;;104.40;41.05;;;;;;;25.80;70.53;98013.03;4924486;29;20047;-66
2022/03/30 02:45:21;;;;;;;97.65;39.55;;;;;;;26.06;73.05;98015.59;4939101;29;20151;-66
2022/03/30 02:48:18;;;;;;;106.00;42.20;;;;;;;25.96;68.93;98036.03;4921306;29;20079;-67
2022/03/30 02:51:10;;;;;;;121.93;49.85;;;;;;;26.12;68.46;98025.53;4926542;29;20049;-66
2022/03/30 02:53:52;;;;;;;122.97;48.63;;;;;;;26.33;68.96;98033.06;4926806;29;20055;-66
2022/03/30 02:56:41;;;;;;;123.15;47.80;;;;;;;26.46;68.87;98040.50;4921801;29;20495;-67
2022/03/30 02:59:23;;;;;;;114.00;45.35;;;;;;;26.65;72.83;98032.31;4920544;29;20051;-66
2022/03/30 03:02:13;;;;;;;138.57;53.88;;;;;;;26.70;67.17;98035.28;4925335;29;20110;-67
2022/03/30 03:04:55;;;;;;;141.40;54.95;;;;;;;26.66;65.12;98050.63;4924849;29;20767;-66
2022/03/30 03:07:43;;;;;;;134.65;53.15;;;;;;;26.78;70.45;98043.22;4921276;29;20054;-67
2022/03/30 03:10:26;;;;;;;121.75;50.22;;;;;;;26.89;66.60;98039.44;4904594;29;20630;-66
2022/03/30 03:13:16;;;;;;;143.13;54.55;;;;;;;26.90;64.47;98041.91;4918789;29;20396;-66
2022/03/30 03:16:00;;;;;;;132.77;52.90;;;;;;;26.97;67.52;98047.41;4920750;29;20060;-66
2022/03/30 03:18:49;;;;;;;133.60;49.13;;;;;;;26.98;61.88;98041.09;4915146;29;20133;-66
2022/03/30 03:21:31;;;;;;;111.65;44.25;;;;;;;27.15;61.39;98047.22;4906056;29;20062;-67
2022/03/30 03:24:20;;;;;;;116.30;46.55;;;;;;;27.27;62.95;98043.25;4918379;29;20063;-66
2022/03/30 03:27:09;;;;;;;112.57;47.97;;;;;;;27.28;59.70;98050.19;4922956;28;20044;-67
2022/03/30 03:29:58;;;;;;;111.47;44.05;;;;;;;27.56;66.97;98058.63;4916804;29;20090;-66
2022/03/30 03:32:40;;;;;;;110.55;43.35;;;;;;;27.66;66.14;98057.44;4923073;29;20047;-66
2022/03/30 03:35:35;;;;;;;109.15;41.83;;;;;;;27.83;64.38;98060.88;4912774;29;20058;-67
2022/03/30 03:38:10;;;;;;;109.60;47.20;;;;;;;27.88;63.80;98065.66;4925457;29;20043;-66
2022/03/30 03:40:58;;;;;;;121.03;46.50;;;;;;;28.02;61.37;98071.06;4924093;29;20044;-66
2022/03/30 03:43:40;;;;;;;124.05;42.50;;;;;;;28.06;57.76;98080.34;4922409;29;20780;-66
2022/03/30 03:46:29;;;;;;;105.47;37.33;;;;;;;28.09;56.27;98081.81;4906112;29;20047;-67
2022/03/30 03:49:11;;;;;;;118.68;38.90;;;;;;;28.15;56.17;98089.94;4888555;29;20052;-67
2022/03/30 03:52:00;;;;;;;113.90;39.05;;;;;;;28.26;57.20;98088.72;4914777;29;20048;-66
2022/03/30 03:54:42;;;;;;;104.75;40.05;;;;;;;28.45;61.64;98084.84;4910623;29;20048;-67
2022/03/30 03:57:38;;;;;;;121.97;39.72;;;;;;;28.62;58.39;98093.53;4921916;29;20071;-66
2022/03/30 04:00:14;;;;;;;126.40;43.42;;;;;;;28.61;55.57;98098.00;4923782;29;20058;-67
2022/03/30 04:03:09;;;;;;;103.70;40.65;;;;;;;28.95;58.20;98100.31;4916981;29;20459;-67
2022/03/30 04:05:44;;;;;;;130.85;44.97;;;;;;;29.19;61.82;98102.78;4923193;29;20051;-67
2022/03/30 04:08:37;;;;;;;136.27;49.65;;;;;;;29.45;53.87;98112.25;4924943;29;20048;-66
2022/03/30 04:11:26;;;;;;;149.65;51.97;;;;;;;29.63;52.34;98110.06;4913692;29;20058;-67
2022/03/30 04:14:21;;;;;;;142.95;53.22;;;;;;;29.77;51.11;98113.75;4923003;29;20138;-67
2022/03/30 04:16:56;;;;;;;145.93;56.08;;;;;;;30.35;55.52;98100.50;4915871;29;20118;-67
2022/03/30 04:19:51;;;;;;;162.35;55.30;;;;;;;30.66;56.06;98108.25;4923653;29;20048;-67
2022/03/30 04:22:26;;;;;;;167.20;62.53;;;;;;;30.42;52.50;98109.38;4925226;29;20131;-66
2022/03/30 04:25:15;;;;;;;173.50;65.55;;;;;;;30.96;52.08;98110.84;4924650;29;20135;-67
2022/03/30 04:27:59;;;;;;;166.65;59.65;;;;;;;31.09;51.26;98109.16;4923624;29;20055;-68
2022/03/30 04:30:54;;;;;;;185.77;67.25;;;;;;;31.29;52.91;98100.56;4923838;29;20495;-67
2022/03/30 04:33:29;;;;;;;141.38;61.70;;;;;;;31.37;50.60;98103.88;4921766;29;20510;-67
2022/03/30 04:36:24;;;;;;;128.75;57.30;;;;;;;31.78;50.08;98105.84;4919789;29;20119;-63
2022/03/30 04:39:00;;;;;;;110.85;48.55;;;;;;;31.70;47.60;98122.81;4921923;29;20066;-64
2022/03/30 04:41:55;;;;;;;104.88;44.40;;;;;;;32.09;52.07;98127.59;4915230;29;20135;-63
2022/03/30 04:44:30;;;;;;;102.53;44.97;;;;;;;32.11;49.09;98144.22;4922719;29;20047;-64
2022/03/30 04:47:19;;;;;;;97.32;41.17;;;;;;;32.73;49.06;98146.00;4925180;29;20040;-63
2022/03/30 04:50:01;;;;;;;86.68;36.78;;;;;;;32.74;44.84;98157.50;4922433;29;20143;-65
2022/03/30 04:52:51;;;;;;;97.35;42.17;;;;;;;33.25;46.21;98160.56;4919614;29;20051;-64
2022/03/30 04:55:33;;;;;;;97.50;43.15;;;;;;;32.88;43.64;98159.22;4917006;29;20048;-64
2022/03/30 04:58:22;;;;;;;87.45;45.50;;;;;;;33.48;41.71;98161.00;4918434;29;20099;-65
2022/03/30 05:01:11;;;;;;;98.38;45.40;;;;;;;33.71;49.19;98153.41;4906330;29;20140;-64
2022/03/30 05:03:56;;;;;;;84.65;42.15;;;;;;;33.74;50.87;98155.69;4906040;29;20040;-64
2022/03/30 05:06:47;;;;;;;86.80;38.20;;;;;;;33.93;44.07;98158.53;4893440;29;20044;-64
2022/03/30 05:09:29;;;;;;;88.35;38.08;;;;;;;34.23;45.58;98151.75;4920447;29;21074;-65
2022/03/30 05:12:18;;;;;;;85.20;40.95;;;;;;;34.13;47.71;98164.69;4922801;29;20047;-67
2022/03/30 05:15:01;;;;;;;97.13;50.47;;;;;;;34.25;49.24;98164.91;4917372;29;20059;-66
2022/03/30 05:17:51;;;;;;;119.45;58.65;;;;;;;34.25;40.82;98165.72;4921882;29;20052;-66
2022/03/30 05:20:33;;;;;;;121.25;59.22;;;;;;;34.13;40.99;98170.03;4918555;29;20051;-66
2022/03/30 05:23:22;;;;;;;113.80;53.50;;;;;;;34.35;43.56;98165.28;4921619;29;20106;-66
2022/03/30 05:26:04;;;;;;;119.50;55.17;;;;;;;34.08;45.55;98161.84;4901983;29;20047;-66
2022/03/30 05:28:53;;;;;;;101.80;52.10;;;;;;;34.29;46.53;98161.59;4920847;29;20239;-66
2022/03/30 05:31:35;;;;;;;111.88;56.25;;;;;;;33.84;41.99;98157.13;4923013;29;20130;-67
2022/03/30 05:34:43;;;;;;;120.15;57.65;;;;;;;34.25;41.48;98159.53;4925019;29;20150;-66
2022/03/30 05:37:38;;;;;;;112.22;51.50;;;;;;;34.65;42.71;98154.88;4924724;29;20095;-64
2022/03/30 05:40:22;;;;;;;96.38;47.03;;;;;;;34.07;41.44;98157.53;4924027;29;20062;-64
2022/03/30 05:43:17;;;;;;;104.18;46.53;;;;;;;34.23;45.77;98154.44;4928148;29;20574;-65
2022/03/30 05:45:59;;;;;;;104.65;49.05;;;;;;;34.81;42.23;98151.75;4918632;29;20150;-64
2022/03/30 05:48:48;;;;;;;121.47;55.65;;;;;;;34.50;39.91;98149.81;4926074;29;20051;-65
2022/03/30 05:51:30;;;;;;;127.30;56.90;;;;;;;34.74;41.31;98153.66;4925888;29;20043;-65
2022/03/30 05:54:25;;;;;;;104.65;50.95;;;;;;;34.51;40.16;98152.28;4917675;29;20078;-67
2022/03/30 05:57:00;;;;;;;105.28;49.95;;;;;;;34.35;41.63;98144.72;4925150;29;20047;-65
2022/03/30 05:59:49;;;;;;;115.97;53.22;;;;;;;34.24;41.75;98148.06;4925058;29;20143;-63
2022/03/30 06:02:31;;;;;;;110.88;56.65;;;;;;;34.46;42.09;98148.59;4923823;29;20130;-64
2022/03/30 06:05:27;;;;;;;135.60;63.10;;;;;;;34.69;39.90;98140.06;4923225;29;20147;-63
2022/03/30 06:08:03;;;;;;;122.13;64.03;;;;;;;34.61;42.88;98130.41;4926397;29;20085;-63
2022/03/30 06:10:58;;;;;;;133.63;66.13;;;;;;;34.52;40.32;98137.84;4925944;29;20063;-63
2022/03/30 06:13:47;;;;;;;121.20;58.90;;;;;;;34.44;42.09;98135.41;4926994;29;20058;-65
2022/03/30 06:16:29;;;;;;;127.90;55.30;;;;;;;34.10;40.24;98141.03;4906766;29;20051;-63
2022/03/30 06:19:25;;;;;;;124.68;53.17;;;;;;;34.29;40.93;98131.34;4926655;29;20496;-63
2022/03/30 06:22:08;;;;;;;103.82;52.95;;;;;;;34.49;43.03;98124.06;4927933;29;20082;-64
2022/03/30 06:24:59;;;;;;;128.38;57.80;;;;;;;34.56;44.11;98116.88;4911679;29;20059;-65
2022/03/30 06:27:42;;;;;;;116.53;59.60;;;;;;;34.38;47.18;98114.03;4899544;29;20067;-63
2022/03/30 06:30:39;;;;;;;116.00;55.80;;;;;;;34.10;44.20;98117.78;4906601;29;20055;-63
2022/03/30 06:33:14;;;;;;;110.20;51.38;;;;;;;34.05;43.22;98125.63;4908650;29;20170;-64
2022/03/30 06:36:09;;;;;;;130.87;49.70;;;;;;;33.94;47.94;98115.56;4909203;29;20104;-63
2022/03/30 06:38:44;;;;;;;100.00;44.38;;;;;;;34.07;46.28;98109.38;4907394;29;20295;-64
2022/03/30 06:41:33;;;;;;;106.18;47.58;;;;;;;33.53;40.04;98109.59;4908417;29;20106;-63
2022/03/30 06:44:15;;;;;;;113.40;48.38;;;;;;;34.03;42.20;98106.28;4883435;29;20456;-63
2022/03/30 06:47:04;;;;;;;122.30;59.60;;;;;;;34.15;41.01;98109.97;4905563;29;20115;-63
2022/03/30 06:49:47;;;;;;;135.73;58.43;;;;;;;34.32;40.96;98106.88;4908412;29;20076;-64
2022/03/30 06:52:36;;;;;;;129.52;58.53;;;;;;;34.30;46.06;98096.38;4909501;29;20056;-64
2022/03/30 06:55:25;;;;;;;123.93;56.55;;;;;;;34.32;43.04;98086.28;4892324;29;20056;-63
2022/03/30 06:58:14;;;;;;;116.97;61.53;;;;;;;34.46;40.20;98081.69;4908673;29;20067;-63
2022/03/30 07:00:59;;;;;;;117.88;57.58;;;;;;;34.28;42.19;98082.38;4892587;29;20056;-64
2022/03/30 07:03:48;;;;;;;114.88;54.97;;;;;;;34.33;40.71;98077.22;4903700;29;20059;-64
2022/03/30 07:10:14;;;;;;;125.43;56.10;;;;;;;34.41;39.75;98070.78;4906685;29;20393;-64
2022/03/30 07:12:46;;;;;;;120.32;54.20;;;;;;;34.39;42.49;98067.53;4907977;29;20103;-64
2022/03/30 07:15:35;;;;;;;121.60;52.28;;;;;;;34.43;42.28;98063.38;4907625;29;20051;-64
2022/03/30 07:18:17;;;;;;;119.13;57.85;;;;;;;34.25;41.40;98055.22;4905774;29;20056;-64
2022/03/30 07:21:08;;;;;;;122.53;56.45;;;;;;;33.97;39.31;98061.69;4908096;29;20047;-64
2022/03/30 07:24:05;;;;;;;123.25;55.63;;;;;;;34.34;39.77;98060.13;4911683;29;20047;-64
2022/03/30 07:26:53;;;;;;;117.90;53.40;;;;;;;34.35;38.87;98056.41;4918145;29;20057;-64
2022/03/30 07:29:42;;;;;;;105.03;49.42;;;;;;;34.31;40.55;98049.88;4925496;29;20127;-63
2022/03/30 07:32:24;;;;;;;109.15;49.60;;;;;;;34.49;37.90;98049.97;4925681;29;20154;-63
2022/03/30 07:35:16;;;;;;;111.05;47.50;;;;;;;34.52;38.31;98046.06;4918723;29;20051;-64
2022/03/30 07:37:58;;;;;;;103.75;49.08;;;;;;;34.54;40.86;98039.47;4927665;29;20159;-63
2022/03/30 07:40:50;;;;;;;107.43;48.10;;;;;;;34.47;41.74;98033.31;4924364;29;20357;-63
2022/03/30 07:43:39;;;;;;;94.28;45.17;;;;;;;34.26;38.75;98032.78;4925710;29;20070;-63
2022/03/30 07:46:34;;;;;;;106.55;45.72;;;;;;;34.02;36.72;98024.41;4925797;29;20055;-62
2022/03/30 07:49:09;;;;;;;103.85;45.95;;;;;;;34.29;41.23;98008.31;4925331;29;20051;-63
2022/03/30 07:52:00;;;;;;;102.72;47.97;;;;;;;34.23;37.32;98019.84;4915765;29;20428;-63
2022/03/30 07:54:42;;;;;;;127.03;50.78;;;;;;;34.33;39.21;98010.31;4925924;29;20052;-63
2022/03/30 07:57:31;;;;;;;118.75;51.22;;;;;;;34.23;38.14;98015.34;4924302;29;20081;-63
2022/03/30 08:00:16;;;;;;;95.32;49.13;;;;;;;34.33;41.43;97996.13;4925811;29;20755;-63
2022/03/30 08:03:05;;;;;;;105.32;50.63;;;;;;;34.10;40.34;98004.66;4923660;29;20063;-63
2022/03/30 08:05:48;;;;;;;114.18;49.22;;;;;;;34.18;40.25;97994.53;4935478;29;20126;-62
2022/03/30 08:08:37;;;;;;;109.68;51.55;;;;;;;34.23;41.09;97993.94;4913340;29;20111;-62
2022/03/30 08:11:26;;;;;;;99.38;50.72;;;;;;;34.09;40.36;97987.78;4924483;29;20103;-62
2022/03/30 08:14:15;;;;;;;97.18;49.80;;;;;;;34.18;43.18;97986.50;4923804;29;20055;-62
2022/03/30 08:16:57;;;;;;;95.22;45.90;;;;;;;33.81;38.88;97984.63;4924388;29;20055;-63
2022/03/30 08:19:52;;;;;;;98.10;43.33;;;;;;;33.89;40.14;97978.22;4907282;29;20055;-63
2022/03/30 08:22:30;;;;;;;92.35;42.40;;;;;;;34.07;43.49;97973.00;4921298;29;20179;-63
2022/03/30 08:25:26;;;;;;;85.40;41.35;;;;;;;34.10;42.89;97968.03;4924969;29;20051;-63
2022/03/30 08:28:08;;;;;;;116.72;41.78;;;;;;;34.02;41.36;97964.78;4923682;29;20044;-63
2022/03/30 08:30:57;;;;;;;78.97;32.17;;;;;;;33.96;39.65;97973.66;4926656;29;20118;-63
2022/03/30 08:33:54;;;;;;;80.07;31.42;;;;;;;33.90;39.86;97961.97;4926887;29;20058;-63
2022/03/30 08:36:30;;;;;;;72.20;31.40;;;;;;;34.01;42.28;97960.47;4926025;29;20052;-63
2022/03/30 08:39:19;;;;;;;86.70;29.50;;;;;;;33.97;43.94;97953.91;4925301;29;20058;-63
2022/03/30 08:42:02;;;;;;;79.05;28.60;;;;;;;33.96;40.16;97954.94;4915317;29;20064;-63
2022/03/30 08:44:51;;;;;;;72.28;26.50;;;;;;;33.97;39.71;97951.22;4923236;29;20383;-62
2022/03/30 08:47:33;;;;;;;65.78;26.13;;;;;;;33.97;41.31;97946.72;4923121;29;20048;-63
2022/03/30 08:50:22;;;;;;;59.95;27.02;;;;;;;33.82;39.86;97940.81;4925169;29;20047;-63
2022/03/30 08:53:10;;;;;;;55.63;24.95;;;;;;;33.82;42.88;97938.16;4922808;29;20067;-63
2022/03/30 08:55:59;;;;;;;57.83;24.50;;;;;;;33.77;41.53;97941.44;4924446;29;20048;-63
2022/03/30 08:58:48;;;;;;;67.63;23.63;;;;;;;33.83;41.75;97938.97;4924930;29;20118;-63
2022/03/30 09:01:34;;;;;;;60.70;22.85;;;;;;;33.87;39.24;97934.81;4917158;29;20063;-63
2022/03/30 09:04:28;;;;;;;64.57;25.60;;;;;;;33.87;41.05;97927.63;4920092;29;20048;-64
2022/03/30 09:07:11;;;;;;;53.03;23.20;;;;;;;33.74;39.37;97925.84;4920205;29;20052;-63
2022/03/30 09:10:00;;;;;;;64.63;24.05;;;;;;;33.72;39.33;97922.56;4927166;29;20115;-62
2022/03/30 09:12:44;;;;;;;51.63;23.63;;;;;;;33.79;38.24;97914.50;4923972;29;20036;-62
2022/03/30 09:15:33;;;;;;;66.90;24.50;;;;;;;33.86;39.91;97911.78;4928060;29;20047;-63
2022/03/30 09:18:22;;;;;;;62.92;21.95;;;;;;;33.84;38.29;97919.22;4911028;29;20083;-63
2022/03/30 09:21:11;;;;;;;48.67;20.77;;;;;;;33.89;39.54;97912.19;4924778;29;20052;-65
2022/03/30 09:24:04;;;;;;;63.63;23.83;;;;;;;33.72;38.51;97906.50;4919775;29;20056;-62
2022/03/30 09:26:48;;;;;;;64.88;25.23;;;;;;;33.77;39.64;97904.00;4926837;29;20935;-63
2022/03/30 09:29:37;;;;;;;62.00;23.10;;;;;;;33.73;37.70;97907.34;4926792;29;20062;-64
2022/03/30 09:32:30;;;;;;;53.75;20.52;;;;;;;33.77;38.46;97904.00;4925403;29;20059;-63
2022/03/30 09:35:34;;;;;;;70.55;20.70;;;;;;;33.82;40.40;97892.69;4930667;29;20066;-64
2022/03/30 09:38:19;;;;;;;62.13;20.10;;;;;;;33.78;38.95;97888.78;4924089;29;20131;-63
2022/03/30 09:41:09;;;;;;;53.85;19.55;;;;;;;33.72;38.64;97884.28;4928416;29;20070;-63
2022/03/30 09:44:04;;;;;;;62.95;21.27;;;;;;;33.70;39.01;97881.81;4930428;29;20047;-65
2022/03/30 09:47:03;;;;;;;42.63;17.42;;;;;;;33.71;39.74;97879.97;4930641;29;20055;-64
2022/03/30 09:49:54;;;;;;;39.58;16.90;;;;;;;33.66;37.65;97885.97;4931250;29;20051;-63
2022/03/30 09:52:37;;;;;;;49.28;16.83;;;;;;;33.62;37.95;97874.03;4929771;29;20074;-64
2022/03/30 09:55:28;;;;;;;71.50;20.20;;;;;;;33.62;38.91;97871.38;4929117;29;20051;-64
2022/03/30 09:58:17;;;;;;;50.45;18.52;;;;;;;33.46;39.73;97868.34;4931371;29;20389;-63
2022/03/30 10:01:10;;;;;;;59.28;18.23;;;;;;;33.59;36.72;97874.47;4931586;29;20059;-64
2022/03/30 10:04:08;;;;;;;49.28;17.35;;;;;;;33.48;35.97;97867.13;4929019;29;20061;-63
2022/03/30 10:07:16;;;;;;;41.38;17.13;;;;;;;33.48;36.26;97859.09;4924015;29;20056;-63
2022/03/30 10:09:59;;;;;;;42.80;16.40;;;;;;;33.54;34.73;97860.91;4926579;29;20083;-63
2022/03/30 10:12:48;;;;;;;46.92;15.23;;;;;;;33.56;36.15;97858.88;4928685;29;20060;-63
2022/03/30 10:15:30;;;;;;;41.85;16.88;;;;;;;33.57;35.58;97852.50;4927248;29;20056;-63
2022/03/30 10:18:19;;;;;;;40.88;16.98;;;;;;;33.50;36.17;97858.91;4928089;29;20043;-63
2022/03/30 10:21:25;;;;;;;52.15;15.35;;;;;;;33.63;32.92;97864.16;4920016;29;20126;-63
2022/03/30 10:24:38;;;;;;;57.17;15.30;;;;;;;33.58;33.51;97858.66;4925849;29;20087;-64
2022/03/30 10:27:30;;;;;;;39.08;14.10;;;;;;;33.54;34.53;97855.56;4926375;29;20062;-64
2022/03/30 10:30:36;;;;;;;41.00;14.30;;;;;;;33.55;33.87;97851.06;4927464;29;20043;-64
2022/03/30 10:33:37;;;;;;;44.78;14.23;;;;;;;33.66;31.80;97856.56;4927021;29;20114;-65
2022/03/30 10:36:35;;;;;;;47.45;16.00;;;;;;;33.62;33.29;97847.31;4925840;29;20055;-64
2022/03/30 10:39:30;;;;;;;43.97;19.25;;;;;;;33.68;34.09;97849.16;4925990;29;20061;-64
2022/03/30 10:42:25;;;;;;;47.78;14.95;;;;;;;33.68;32.10;97853.69;4927331;29;20543;-64
2022/03/30 10:45:29;;;;;;;39.38;15.48;;;;;;;33.65;35.10;97846.91;4922791;29;20075;-64
2022/03/30 10:48:37;;;;;;;50.28;19.17;;;;;;;33.59;34.32;97847.75;4926789;29;20488;-64
2022/03/30 10:51:26;;;;;;;44.30;14.20;;;;;;;33.53;33.50;97848.59;4928111;29;20063;-63
2022/03/30 10:54:36;;;;;;;34.15;13.43;;;;;;;33.30;35.49;97850.94;4923949;29;20048;-62
2022/03/30 10:57:48;;;;;;;43.47;15.13;;;;;;;33.27;34.26;97859.41;4928772;29;20551;-65
2022/03/30 11:00:41;;;;;;;31.00;13.27;;;;;;;33.09;36.24;97856.53;4928462;29;20058;-64
2022/03/30 11:03:26;;;;;;;45.78;13.13;;;;;;;33.17;34.44;97849.13;4926812;29;20047;-64
2022/03/30 11:06:15;;;;;;;42.75;13.15;;;;;;;33.26;34.71;97847.06;4924629;29;20058;-64
2022/03/30 11:08:58;;;;;;;36.45;12.55;;;;;;;33.01;37.31;97852.22;4920978;29;20506;-64
2022/03/30 11:11:50;;;;;;;35.05;12.45;;;;;;;32.97;36.36;97849.16;4926929;29;20437;-64
2022/03/30 11:14:36;;;;;;;35.58;12.13;;;;;;;32.95;35.28;97853.06;4926474;29;20051;-65
2022/03/30 11:17:40;;;;;;;35.20;13.05;;;;;;;32.80;36.64;97855.16;4927586;29;20055;-63
2022/03/30 11:20:25;;;;;;;39.15;11.75;;;;;;;32.86;33.78;97849.81;4912331;29;20066;-64
2022/03/30 11:23:40;;;;;;;38.30;12.55;;;;;;;32.75;35.15;97858.44;4912550;29;20380;-64
2022/03/30 11:26:30;;;;;;;42.42;12.20;;;;;;;32.88;34.55;97854.94;4921097;29;20055;-64
2022/03/30 11:29:37;;;;;;;36.30;12.80;;;;;;;32.89;35.66;97852.03;4928996;29;20043;-64
2022/03/30 11:32:28;;;;;;;28.60;12.15;;;;;;;32.75;35.12;97861.09;4925887;29;20079;-64
2022/03/30 11:35:19;;;;;;;40.75;12.57;;;;;;;32.57;38.33;97861.69;4927598;29;20083;-64
2022/03/30 11:38:16;;;;;;;29.20;11.70;;;;;;;32.38;38.84;97865.19;4927057;29;20075;-64
2022/03/30 11:41:05;;;;;;;59.17;15.40;;;;;;;32.46;35.47;97859.66;4920333;29;20067;-64
2022/03/30 11:46:55;;;;;;;39.47;11.75;;;;;;;32.22;36.00;97861.06;4923214;29;20055;-62
2022/03/30 11:49:58;;;;;;;38.70;13.07;;;;;;;32.12;38.25;97855.28;4925186;29;20071;-62
2022/03/30 11:52:42;;;;;;;57.65;16.42;;;;;;;32.09;36.43;97855.66;4926387;29;20380;-64
2022/03/30 11:55:31;;;;;;;48.90;18.02;;;;;;;31.97;41.49;97853.81;4927431;29;20075;-65
2022/03/30 11:58:34;;;;;;;47.45;17.85;;;;;;;31.70;43.07;97855.56;4925526;29;20126;-62
2022/03/30 12:01:23;;;;;;;49.03;16.13;;;;;;;31.63;41.62;97850.22;4929030;29;20094;-64
2022/03/30 12:04:13;;;;;;;42.55;14.70;;;;;;;31.68;39.53;97847.81;4930410;29;20287;-62
2022/03/30 12:07:05;;;;;;;46.38;13.77;;;;;;;31.71;37.39;97854.56;4931324;29;20040;-64
2022/03/30 12:09:55;;;;;;;58.72;14.55;;;;;;;31.56;38.72;97858.19;4901644;29;20118;-64
2022/03/30 12:12:46;;;;;;;39.70;14.07;;;;;;;31.47;42.86;97863.88;4924022;29;20122;-64
2022/03/30 12:15:29;;;;;;;50.53;16.05;;;;;;;31.38;45.00;97846.41;4925013;29;20062;-63
2022/03/30 12:18:18;;;;;;;65.00;21.00;;;;;;;31.41;38.36;97857.50;4923705;29;20066;-63
2022/03/30 12:21:03;;;;;;;71.72;21.73;;;;;;;31.50;38.08;97853.66;4924073;29;20052;-63
2022/03/30 12:24:06;;;;;;;58.33;21.23;;;;;;;31.62;38.09;97855.75;4924497;29;20078;-63
2022/03/30 12:27:00;;;;;;;62.15;19.67;;;;;;;31.56;40.58;97868.81;4924521;29;20064;-64
2022/03/30 12:29:49;;;;;;;59.83;22.73;;;;;;;31.44;44.37;97857.13;4925743;29;20130;-63
2022/03/30 12:32:31;;;;;;;60.67;20.75;;;;;;;31.21;41.66;97858.44;4925740;29;20063;-64
2022/03/30 12:35:24;;;;;;;47.72;19.17;;;;;;;31.21;44.13;97855.78;4925435;29;20056;-63
2022/03/30 12:38:11;;;;;;;51.70;19.52;;;;;;;31.02;41.38;97858.09;4925705;29;20060;-64
2022/03/30 12:41:00;;;;;;;65.75;20.52;;;;;;;30.88;46.63;97858.22;4922361;29;20058;-63
2022/03/30 12:43:43;;;;;;;58.97;19.77;;;;;;;30.74;49.34;97859.94;4925447;29;20051;-64
2022/03/30 12:50:23;;;;;;;54.47;18.63;;;;;;;30.48;51.56;97859.72;4954229;24;20784;-63
2022/03/30 12:53:20;;;;;;;47.30;16.67;;;;;;;30.27;52.85;97869.34;4854718;29;20049;-65
2022/03/30 12:55:55;;;;;;;50.58;17.25;;;;;;;30.10;54.20;97867.13;4841304;29;20168;-64
2022/03/30 12:59:06;;;;;;;51.92;17.98;;;;;;;29.95;57.34;97875.97;4865131;29;20053;-64
2022/03/30 13:01:45;;;;;;;48.22;17.20;;;;;;;29.82;59.43;97864.34;4853076;29;20419;-64